Time;durP1;ratioP1;P1;durP2;ratioP2;P2;SDS_P1;SDS_P2;PMS_P1;PMS_P2;Temp;Humidity;BMP_temperature;BMP_pressure;BME280_temperature;BME280_humidity;BME280_pressure;Samples;Min_cycle;Max_cycle;Signal;HPM_P1;HPM_P2
2023/03/18 00:01:33;;;;;;;;;;;11.20;99.90;;;;;;6211588;23;19931;-87
2023/03/18 00:03:58;;;;;;;;;;;11.10;99.90;;;;;;6184440;23;20241;-86
2023/03/18 00:06:24;;;;;;;;;;;11.10;99.90;;;;;;6212608;23;19900;-86
2023/03/18 00:08:51;;;;;;;;;;;11.00;99.90;;;;;;6211041;23;19900;-86
2023/03/18 00:11:17;;;;;;;;;;;10.90;99.90;;;;;;6211466;23;19911;-87
2023/03/18 00:13:43;;;;;;;;;;;10.90;99.90;;;;;;6211291;23;19938;-88
2023/03/18 00:16:10;;;;;;;;;;;10.80;99.90;;;;;;6211936;23;19908;-87
2023/03/18 00:18:36;;;;;;;;;;;10.90;99.90;;;;;;6211462;23;19911;-88
2023/03/18 00:21:02;;;;;;;;;;;10.90;99.90;;;;;;6211571;23;19915;-86
2023/03/18 00:23:28;;;;;;;;;;;10.90;99.90;;;;;;6185476;23;19904;-85
2023/03/18 00:25:55;;;;;;;;;;;10.90;99.90;;;;;;6211774;23;19900;-88
2023/03/18 00:28:21;;;;;;;;;;;10.90;99.90;;;;;;6211122;23;20333;-86
2023/03/18 00:30:48;;;;;;;;;;;11.00;99.90;;;;;;6211128;23;19935;-85
2023/03/18 00:33:14;;;;;;;;;;;11.00;99.90;;;;;;6185024;23;20317;-86
2023/03/18 00:35:40;;;;;;;;;;;11.00;99.90;;;;;;6210795;23;19903;-87
2023/03/18 00:38:07;;;;;;;;;;;11.00;99.90;;;;;;6184582;23;19915;-87
2023/03/18 00:40:52;;;;;;;;;;;10.90;99.90;;;;;;6183841;23;19900;-87
2023/03/18 00:43:20;;;;;;;;;;;11.00;99.90;;;;;;6184397;23;19904;-87
2023/03/18 00:45:47;;;;;;;;;;;11.00;99.90;;;;;;6211213;23;19900;-88
2023/03/18 00:48:13;;;;;;;;;;;10.90;99.90;;;;;;6211549;23;19900;-87
2023/03/18 00:50:39;;;;;;;;;;;11.00;99.90;;;;;;6211004;23;19983;-86
2023/03/18 00:53:04;;;;;;;;;;;11.00;99.90;;;;;;6185032;23;20308;-86
2023/03/18 00:55:30;;;;;;;;;;;11.00;99.90;;;;;;6184240;23;19908;-86
2023/03/18 00:57:56;;;;;;;;;;;10.90;99.90;;;;;;6212278;23;20352;-86
2023/03/18 01:00:21;;;;;;;;;;;10.90;99.90;;;;;;6209943;23;19983;-85
2023/03/18 01:02:48;;;;;;;;;;;10.90;99.90;;;;;;6210680;23;20025;-86
2023/03/18 01:05:15;;;;;;;;;;;10.90;99.90;;;;;;6210157;23;19946;-86
2023/03/18 01:07:41;;;;;;;;;;;10.90;99.90;;;;;;6210197;23;19993;-86
2023/03/18 01:10:07;;;;;;;;;;;10.80;99.90;;;;;;6210880;23;19904;-87
2023/03/18 01:12:32;;;;;;;;;;;10.80;99.90;;;;;;6210806;23;19900;-86
2023/03/18 01:14:58;;;;;;;;;;;10.90;99.90;;;;;;6211920;23;19953;-86
2023/03/18 01:17:24;;;;;;;;;;;11.00;99.90;;;;;;6210644;23;19908;-87
2023/03/18 01:19:50;;;;;;;;;;;10.90;99.90;;;;;;6184117;23;19911;-88
2023/03/18 01:22:15;;;;;;;;;;;10.80;99.90;;;;;;6210790;23;20375;-87
2023/03/18 01:24:41;;;;;;;;;;;10.70;99.90;;;;;;6183672;23;19899;-87
2023/03/18 01:27:06;;;;;;;;;;;10.90;99.90;;;;;;6210837;23;19944;-87
2023/03/18 01:29:32;;;;;;;;;;;10.70;99.90;;;;;;6210547;23;19900;-87
2023/03/18 01:31:59;;;;;;;;;;;10.80;99.90;;;;;;6212139;23;19900;-87
2023/03/18 01:34:24;;;;;;;;;;;10.80;99.90;;;;;;6183964;23;19907;-87
2023/03/18 01:36:50;;;;;;;;;;;10.70;99.90;;;;;;6210524;23;19908;-87
2023/03/18 01:39:16;;;;;;;;;;;10.70;99.90;;;;;;6210763;23;19900;-88
2023/03/18 01:41:43;;;;;;;;;;;10.60;99.90;;;;;;6209941;23;19904;-89
2023/03/18 01:44:13;;;;;;;;;;;10.60;99.90;;;;;;6184503;23;19950;-87
2023/03/18 01:46:41;;;;;;;;;;;10.60;99.90;;;;;;6184024;23;19900;-88
2023/03/18 01:49:14;;;;;;;;;;;10.80;99.90;;;;;;6184125;23;19904;-88
2023/03/18 01:51:41;;;;;;;;;;;10.70;99.90;;;;;;6210118;23;19934;-87
2023/03/18 01:54:07;;;;;;;;;;;10.70;99.90;;;;;;6185949;23;19918;-88
2023/03/18 01:56:35;;;;;;;;;;;10.70;99.90;;;;;;6213808;23;19979;-88
2023/03/18 01:59:01;;;;;;;;;;;10.70;99.90;;;;;;6186961;23;19903;-87
2023/03/18 02:01:41;;;;;;;;;;;10.60;99.90;;;;;;6212188;23;19943;-87
2023/03/18 02:04:09;;;;;;;;;;;10.80;99.90;;;;;;6212392;23;19995;-88
2023/03/18 02:06:34;;;;;;;;;;;10.70;99.90;;;;;;6212661;23;19903;-88
2023/03/18 02:09:00;;;;;;;;;;;10.60;99.90;;;;;;6214060;23;19946;-88
2023/03/18 02:11:27;;;;;;;;;;;10.70;99.90;;;;;;6212526;23;19986;-88
2023/03/18 02:13:53;;;;;;;;;;;10.70;99.90;;;;;;6212560;23;19907;-89
2023/03/18 02:16:23;;;;;;;;;;;10.70;99.90;;;;;;6212292;23;19950;-88
2023/03/18 02:18:55;;;;;;;;;;;10.60;99.90;;;;;;6185167;23;19926;-88
2023/03/18 02:21:26;;;;;;;;;;;10.70;99.90;;;;;;6212526;23;19908;-88
2023/03/18 02:23:58;;;;;;;;;;;10.70;99.90;;;;;;6212531;23;19900;-89
2023/03/18 02:26:44;;;;;;;;;;;10.70;99.90;;;;;;6212844;23;19975;-87
2023/03/18 02:29:10;;;;;;;;;;;10.70;99.90;;;;;;6212190;23;19946;-87
2023/03/18 02:31:37;;;;;;;;;;;10.80;99.90;;;;;;6185527;23;19900;-88
2023/03/18 02:34:06;;;;;;;;;;;10.80;99.90;;;;;;6212586;23;20328;-87
2023/03/18 02:36:32;;;;;;;;;;;10.80;99.90;;;;;;6213712;23;19939;-88
2023/03/18 02:38:59;;;;;;;;;;;10.80;99.90;;;;;;6211998;23;19910;-88
2023/03/18 02:41:26;;;;;;;;;;;10.80;99.90;;;;;;6185859;23;19899;-89
2023/03/18 02:43:51;;;;;;;;;;;10.70;99.90;;;;;;6211905;23;19900;-88
2023/03/18 02:46:29;;;;;;;;;;;10.90;99.90;;;;;;6185698;23;19904;-89
2023/03/18 02:48:56;;;;;;;;;;;10.80;99.90;;;;;;6212318;23;20143;-88
2023/03/18 02:51:22;;;;;;;;;;;10.80;99.90;;;;;;6211563;23;19975;-88
2023/03/18 02:53:48;;;;;;;;;;;11.00;99.90;;;;;;6212198;23;19928;-87
2023/03/18 02:56:13;;;;;;;;;;;10.80;99.90;;;;;;6212304;23;20332;-87
2023/03/18 02:58:40;;;;;;;;;;;10.90;99.90;;;;;;6185390;23;19911;-88
2023/03/18 03:01:07;;;;;;;;;;;10.70;99.90;;;;;;6212878;23;19900;-87
2023/03/18 03:03:33;;;;;;;;;;;10.70;99.90;;;;;;6212743;23;19900;-88
2023/03/18 03:05:59;;;;;;;;;;;10.80;99.90;;;;;;6211523;23;19971;-89
2023/03/18 03:08:26;;;;;;;;;;;10.90;99.90;;;;;;6185172;23;19899;-88
2023/03/18 03:10:51;;;;;;;;;;;10.90;99.90;;;;;;6185555;23;19922;-88
2023/03/18 03:13:18;;;;;;;;;;;11.00;99.90;;;;;;6211929;23;20240;-87
2023/03/18 03:15:43;;;;;;;;;;;10.80;99.90;;;;;;6211318;23;20298;-89
2023/03/18 03:18:09;;;;;;;;;;;10.90;99.90;;;;;;6211605;23;19907;-87
2023/03/18 03:20:36;;;;;;;;;;;10.90;99.90;;;;;;6212094;23;19986;-88
2023/03/18 03:23:06;;;;;;;;;;;10.90;99.90;;;;;;6185589;23;19900;-89
2023/03/18 03:25:32;;;;;;;;;;;10.90;99.90;;;;;;6184502;23;19974;-86
2023/03/18 03:27:58;;;;;;;;;;;10.90;99.90;;;;;;6212287;23;19904;-86
2023/03/18 03:30:25;;;;;;;;;;;10.90;99.90;;;;;;6211727;23;19907;-87
2023/03/18 03:32:50;;;;;;;;;;;10.90;99.90;;;;;;6212174;23;19978;-88
2023/03/18 03:35:16;;;;;;;;;;;11.00;99.90;;;;;;6211246;23;19935;-87
2023/03/18 03:37:42;;;;;;;;;;;11.00;99.90;;;;;;6211875;23;20344;-87
2023/03/18 03:40:09;;;;;;;;;;;11.00;99.90;;;;;;6212942;23;19900;-88
2023/03/18 03:42:34;;;;;;;;;;;10.90;99.90;;;;;;6212740;23;19900;-87
2023/03/18 03:45:00;;;;;;;;;;;11.00;99.90;;;;;;6211573;23;19900;-88
2023/03/18 03:47:25;;;;;;;;;;;11.00;99.90;;;;;;6210381;23;19904;-87
2023/03/18 03:49:52;;;;;;;;;;;11.10;99.90;;;;;;6206234;23;20292;-86
2023/03/18 03:52:18;;;;;;;;;;;11.10;99.90;;;;;;6207076;23;19903;-87
2023/03/18 03:54:44;;;;;;;;;;;11.10;99.90;;;;;;6206990;23;19907;-87
2023/03/18 03:57:10;;;;;;;;;;;11.10;99.90;;;;;;6183632;23;19908;-85
2023/03/18 03:59:36;;;;;;;;;;;11.10;99.90;;;;;;6208826;23;19900;-86
2023/03/18 04:02:02;;;;;;;;;;;11.00;99.90;;;;;;6207502;23;20222;-86
2023/03/18 04:04:27;;;;;;;;;;;11.00;99.90;;;;;;6207454;23;19908;-86
2023/03/18 04:06:53;;;;;;;;;;;11.10;99.90;;;;;;6206748;23;19907;-85
2023/03/18 04:09:18;;;;;;;;;;;11.00;99.90;;;;;;6209164;23;19904;-89
2023/03/18 04:11:44;;;;;;;;;;;10.90;99.90;;;;;;6210463;23;20236;-85
2023/03/18 04:14:10;;;;;;;;;;;10.90;99.90;;;;;;6183207;23;19950;-86
2023/03/18 04:16:35;;;;;;;;;;;10.90;99.90;;;;;;6181149;23;19995;-86
2023/03/18 04:19:00;;;;;;;;;;;10.90;99.90;;;;;;6180193;23;19911;-87
2023/03/18 04:21:26;;;;;;;;;;;10.90;99.90;;;;;;6181341;23;19904;-89
2023/03/18 04:23:52;;;;;;;;;;;11.00;99.90;;;;;;6207630;23;19919;-88
2023/03/18 04:26:17;;;;;;;;;;;10.90;99.90;;;;;;6181181;23;19904;-87
2023/03/18 04:28:43;;;;;;;;;;;11.00;99.90;;;;;;6183249;23;19904;-88
2023/03/18 04:31:08;;;;;;;;;;;11.00;99.90;;;;;;6181975;23;19900;-88
2023/03/18 04:33:34;;;;;;;;;;;11.10;99.90;;;;;;6206706;23;19908;-86
2023/03/18 04:35:59;;;;;;;;;;;11.10;99.90;;;;;;6181104;23;20331;-85
2023/03/18 04:38:27;;;;;;;;;;;11.10;99.90;;;;;;6206340;23;20284;-88
2023/03/18 04:40:52;;;;;;;;;;;11.10;99.90;;;;;;6179918;23;20225;-87
2023/03/18 04:43:18;;;;;;;;;;;11.30;99.90;;;;;;6207655;23;19907;-86
2023/03/18 04:45:44;;;;;;;;;;;11.20;99.90;;;;;;6206600;23;19978;-87
2023/03/18 04:48:09;;;;;;;;;;;11.20;99.90;;;;;;6207086;23;19904;-87
2023/03/18 04:50:35;;;;;;;;;;;11.20;99.90;;;;;;6181173;23;19904;-88
2023/03/18 04:53:00;;;;;;;;;;;11.20;99.90;;;;;;6180442;23;19970;-89
2023/03/18 04:55:26;;;;;;;;;;;11.20;99.90;;;;;;6208973;23;19990;-88
2023/03/18 04:57:52;;;;;;;;;;;11.20;99.90;;;;;;6209168;23;19915;-86
2023/03/18 05:00:21;;;;;;;;;;;11.20;99.90;;;;;;6180746;23;19900;-87
2023/03/18 05:02:47;;;;;;;;;;;11.30;99.90;;;;;;6207550;23;19907;-87
2023/03/18 05:05:13;;;;;;;;;;;11.30;99.90;;;;;;6208410;23;19903;-89
2023/03/18 05:07:39;;;;;;;;;;;11.30;99.90;;;;;;6207868;23;20027;-86
2023/03/18 05:10:08;;;;;;;;;;;11.30;99.90;;;;;;6206310;23;19927;-85
2023/03/18 05:12:35;;;;;;;;;;;11.40;99.90;;;;;;6208248;23;20156;-87
2023/03/18 05:15:01;;;;;;;;;;;11.30;99.90;;;;;;6208494;23;19908;-88
2023/03/18 05:17:27;;;;;;;;;;;11.30;99.90;;;;;;6206399;23;20222;-88
2023/03/18 05:19:53;;;;;;;;;;;11.40;99.90;;;;;;6207633;23;19911;-87
2023/03/18 05:22:19;;;;;;;;;;;11.30;99.90;;;;;;6210652;23;19900;-86
2023/03/18 05:24:45;;;;;;;;;;;11.40;99.90;;;;;;6211330;23;19899;-85
2023/03/18 05:27:11;;;;;;;;;;;11.40;99.90;;;;;;6211810;23;19993;-88
2023/03/18 05:29:39;;;;;;;;;;;11.40;99.90;;;;;;6211005;23;19899;-88
2023/03/18 05:32:08;;;;;;;;;;;11.40;99.90;;;;;;6211018;23;19903;-85
2023/03/18 05:34:36;;;;;;;;;;;11.40;99.90;;;;;;6210821;23;20681;-88
2023/03/18 05:37:03;;;;;;;;;;;11.40;99.90;;;;;;6209558;23;19907;-87
2023/03/18 05:39:29;;;;;;;;;;;11.40;99.90;;;;;;6210332;23;19899;-89
2023/03/18 05:41:55;;;;;;;;;;;11.50;99.90;;;;;;6210557;23;20022;-87
2023/03/18 05:44:21;;;;;;;;;;;11.40;99.90;;;;;;6210865;23;19927;-88
2023/03/18 05:46:46;;;;;;;;;;;11.50;99.90;;;;;;6210474;23;20333;-90
2023/03/18 05:49:12;;;;;;;;;;;11.50;99.90;;;;;;6210311;23;20218;-88
2023/03/18 05:51:38;;;;;;;;;;;11.40;99.90;;;;;;6211072;23;19903;-87
2023/03/18 05:54:03;;;;;;;;;;;11.40;99.90;;;;;;6210490;23;19935;-90
2023/03/18 05:56:30;;;;;;;;;;;11.40;99.90;;;;;;6210489;23;19904;-87
2023/03/18 05:58:56;;;;;;;;;;;11.50;99.90;;;;;;6210795;23;19899;-88
2023/03/18 06:01:21;;;;;;;;;;;11.40;99.90;;;;;;6183938;23;20293;-87
2023/03/18 06:03:46;;;;;;;;;;;11.40;99.90;;;;;;6210154;23;19904;-87
2023/03/18 06:06:12;;;;;;;;;;;11.30;99.90;;;;;;6212048;23;19931;-88
2023/03/18 06:08:37;;;;;;;;;;;11.40;99.90;;;;;;6184309;23;19900;-88
2023/03/18 06:11:03;;;;;;;;;;;11.40;99.90;;;;;;6184362;23;20314;-86
2023/03/18 06:13:29;;;;;;;;;;;11.30;99.90;;;;;;6210522;23;19907;-87
2023/03/18 06:15:56;;;;;;;;;;;11.30;99.90;;;;;;6210225;23;19915;-87
2023/03/18 06:18:21;;;;;;;;;;;11.30;99.90;;;;;;6183228;23;19907;-88
2023/03/18 06:20:47;;;;;;;;;;;11.20;99.90;;;;;;6210598;23;19912;-85
2023/03/18 06:23:13;;;;;;;;;;;11.20;99.90;;;;;;6211875;23;19986;-89
2023/03/18 06:25:40;;;;;;;;;;;11.20;99.90;;;;;;6210573;23;20248;-88
2023/03/18 06:28:06;;;;;;;;;;;11.30;99.90;;;;;;6183134;23;19907;-88
2023/03/18 06:30:32;;;;;;;;;;;11.40;99.90;;;;;;6209916;23;19926;-87
2023/03/18 06:32:58;;;;;;;;;;;11.20;99.90;;;;;;6182657;23;19908;-87
2023/03/18 06:35:25;;;;;;;;;;;11.30;99.90;;;;;;6210002;23;19914;-87
2023/03/18 06:37:52;;;;;;;;;;;11.30;99.90;;;;;;6210063;23;19934;-87
2023/03/18 06:40:18;;;;;;;;;;;11.30;99.90;;;;;;6212903;23;20270;-87
2023/03/18 06:42:43;;;;;;;;;;;11.30;99.90;;;;;;6185802;23;19900;-87
2023/03/18 06:45:09;;;;;;;;;;;11.30;99.90;;;;;;6212147;23;19910;-86
2023/03/18 06:47:35;;;;;;;;;;;11.30;99.90;;;;;;6184531;23;20325;-86
2023/03/18 06:50:00;;;;;;;;;;;11.30;99.90;;;;;;6211689;23;20295;-87
2023/03/18 06:52:27;;;;;;;;;;;11.30;99.90;;;;;;6185813;23;20383;-87
2023/03/18 06:54:52;;;;;;;;;;;11.30;99.90;;;;;;6184577;23;19900;-88
2023/03/18 06:57:19;;;;;;;;;;;11.30;99.90;;;;;;6186502;23;20014;-89
2023/03/18 06:59:45;;;;;;;;;;;11.40;99.90;;;;;;6213696;23;20025;-87
2023/03/18 07:02:11;;;;;;;;;;;11.30;99.90;;;;;;6212627;23;19904;-89
2023/03/18 07:04:37;;;;;;;;;;;11.30;99.90;;;;;;6185578;23;19939;-87
2023/03/18 07:07:03;;;;;;;;;;;11.30;99.90;;;;;;6212348;23;19900;-87
2023/03/18 07:09:30;;;;;;;;;;;11.40;99.90;;;;;;6185938;23;19954;-89
2023/03/18 07:11:55;;;;;;;;;;;11.40;99.90;;;;;;6185282;23;19904;-87
2023/03/18 07:14:21;;;;;;;;;;;11.40;99.90;;;;;;6185961;23;19983;-86
2023/03/18 07:16:47;;;;;;;;;;;11.40;99.90;;;;;;6213428;23;19910;-88
2023/03/18 07:19:14;;;;;;;;;;;11.40;99.90;;;;;;6211646;23;19939;-87
2023/03/18 07:21:41;;;;;;;;;;;11.50;99.90;;;;;;6211936;23;19900;-87
2023/03/18 07:24:07;;;;;;;;;;;11.50;99.90;;;;;;6211667;23;19966;-86
2023/03/18 07:26:33;;;;;;;;;;;11.50;99.90;;;;;;6212427;23;20276;-87
2023/03/18 07:28:58;;;;;;;;;;;11.50;99.90;;;;;;6185321;23;19900;-86
2023/03/18 07:31:24;;;;;;;;;;;11.50;99.90;;;;;;6212140;23;20006;-86
2023/03/18 07:33:50;;;;;;;;;;;11.50;99.90;;;;;;6212692;23;19906;-86
2023/03/18 07:36:16;;;;;;;;;;;11.50;99.90;;;;;;6209964;23;20278;-87
2023/03/18 07:38:41;;;;;;;;;;;11.50;99.90;;;;;;6185082;23;19904;-86
2023/03/18 07:41:07;;;;;;;;;;;11.50;99.90;;;;;;6185073;23;19907;-88
2023/03/18 07:43:32;;;;;;;;;;;11.50;99.90;;;;;;6210333;23;19904;-86
2023/03/18 07:45:58;;;;;;;;;;;11.40;99.90;;;;;;6211549;23;19900;-87
2023/03/18 07:48:24;;;;;;;;;;;11.50;99.90;;;;;;6211953;23;20300;-87
2023/03/18 07:50:49;;;;;;;;;;;11.50;99.90;;;;;;6185847;23;19900;-89
2023/03/18 07:53:15;;;;;;;;;;;11.50;99.90;;;;;;6210644;23;19900;-86
2023/03/18 07:55:41;;;;;;;;;;;11.50;99.90;;;;;;6184916;23;19906;-86
2023/03/18 07:58:07;;;;;;;;;;;11.50;99.90;;;;;;6211631;23;19908;-86
2023/03/18 08:00:34;;;;;;;;;;;11.60;99.90;;;;;;6205208;23;19978;-86
2023/03/18 08:03:00;;;;;;;;;;;11.60;99.90;;;;;;6183243;23;19965;-86
2023/03/18 08:05:26;;;;;;;;;;;11.60;99.90;;;;;;6209753;23;20332;-87
2023/03/18 08:07:52;;;;;;;;;;;11.60;99.90;;;;;;6210670;23;19903;-87
2023/03/18 08:10:18;;;;;;;;;;;11.80;99.90;;;;;;6184848;23;20233;-88
2023/03/18 08:12:43;;;;;;;;;;;11.70;99.90;;;;;;6184210;23;19982;-87
2023/03/18 08:15:10;;;;;;;;;;;11.80;99.90;;;;;;6211805;23;20019;-88
2023/03/18 08:17:36;;;;;;;;;;;11.70;99.90;;;;;;6184098;23;20303;-88
2023/03/18 08:20:02;;;;;;;;;;;11.80;99.90;;;;;;6210237;23;19918;-87
2023/03/18 08:22:28;;;;;;;;;;;11.90;99.90;;;;;;6183976;23;19908;-88
2023/03/18 08:24:54;;;;;;;;;;;12.00;99.90;;;;;;6211111;23;19982;-85
2023/03/18 08:27:19;;;;;;;;;;;12.10;99.90;;;;;;6185773;23;19899;-86
2023/03/18 08:29:45;;;;;;;;;;;12.10;99.90;;;;;;6185372;23;19904;-87
2023/03/18 08:32:10;;;;;;;;;;;12.20;99.90;;;;;;6185173;23;19946;-87
2023/03/18 08:34:36;;;;;;;;;;;12.20;99.90;;;;;;6184436;23;20245;-89
2023/03/18 08:37:02;;;;;;;;;;;12.20;99.90;;;;;;6212218;23;19908;-89
2023/03/18 08:39:27;;;;;;;;;;;12.20;99.90;;;;;;6211442;23;19899;-88
2023/03/18 08:41:53;;;;;;;;;;;12.20;99.90;;;;;;6212511;23;19900;-89
2023/03/18 08:44:18;;;;;;;;;;;12.30;99.90;;;;;;6184616;23;20225;-87
2023/03/18 08:46:44;;;;;;;;;;;12.30;99.90;;;;;;6211496;23;20468;-86
2023/03/18 08:49:10;;;;;;;;;;;12.30;99.90;;;;;;6210996;23;20335;-88
2023/03/18 08:51:37;;;;;;;;;;;12.20;99.90;;;;;;6211176;23;19900;-88
2023/03/18 08:54:02;;;;;;;;;;;12.30;99.90;;;;;;6211089;23;19923;-87
2023/03/18 08:56:28;;;;;;;;;;;12.40;99.90;;;;;;6210943;23;19915;-88
2023/03/18 08:58:53;;;;;;;;;;;12.50;99.90;;;;;;6185692;23;20217;-88
2023/03/18 09:01:21;;;;;;;;;;;12.60;99.90;;;;;;6184679;23;19942;-88
2023/03/18 09:03:50;;;;;;;;;;;12.70;99.90;;;;;;6185096;23;19904;-90
2023/03/18 09:06:16;;;;;;;;;;;12.60;99.90;;;;;;6185319;23;20236;-87
2023/03/18 09:08:43;;;;;;;;;;;12.60;99.90;;;;;;6210577;23;19931;-89
2023/03/18 09:11:09;;;;;;;;;;;12.60;99.90;;;;;;6209539;23;19899;-88
2023/03/18 09:13:35;;;;;;;;;;;12.50;99.90;;;;;;6211468;23;19922;-90
2023/03/18 09:16:00;;;;;;;;;;;12.60;99.90;;;;;;6209713;23;19975;-89
2023/03/18 09:18:26;;;;;;;;;;;12.70;99.90;;;;;;6184100;23;20245;-86
2023/03/18 09:20:52;;;;;;;;;;;12.80;99.90;;;;;;6212088;23;19961;-87
2023/03/18 09:23:18;;;;;;;;;;;12.90;99.90;;;;;;6211150;23;19922;-87
2023/03/18 09:25:47;;;;;;;;;;;13.00;99.90;;;;;;6184994;23;19899;-88
2023/03/18 09:28:13;;;;;;;;;;;13.10;99.90;;;;;;6210761;23;19907;-89
2023/03/18 09:30:39;;;;;;;;;;;13.10;99.90;;;;;;6210070;23;19903;-88
2023/03/18 09:33:08;;;;;;;;;;;13.20;99.90;;;;;;6210809;23;20348;-88
2023/03/18 09:35:33;;;;;;;;;;;13.30;99.90;;;;;;6211592;23;20385;-89
2023/03/18 09:37:59;;;;;;;;;;;13.30;99.90;;;;;;6209262;23;19946;-87
2023/03/18 09:40:29;;;;;;;;;;;13.40;99.90;;;;;;6210739;23;20284;-89
2023/03/18 09:43:10;;;;;;;;;;;13.40;99.90;;;;;;6211772;23;20387;-87
2023/03/18 09:45:35;;;;;;;;;;;13.40;99.90;;;;;;6210884;23;19931;-88
2023/03/18 09:48:07;;;;;;;;;;;13.40;99.90;;;;;;6209949;23;19999;-92
2023/03/18 09:51:03;;;;;;;;;;;13.40;99.90;;;;;;6182946;23;19907;-88
2023/03/18 09:53:37;;;;;;;;;;;13.20;99.90;;;;;;6179860;23;19911;-89
2023/03/18 09:56:04;;;;;;;;;;;13.20;99.90;;;;;;6183700;23;19953;-88
2023/03/18 09:58:29;;;;;;;;;;;13.20;99.90;;;;;;6210658;23;19982;-87
2023/03/18 10:01:03;;;;;;;;;;;13.30;99.90;;;;;;6210817;23;20254;-88
2023/03/18 10:03:36;;;;;;;;;;;13.50;99.90;;;;;;6210073;23;19900;-86
2023/03/18 10:06:06;;;;;;;;;;;13.40;99.90;;;;;;6210389;23;19900;-87
2023/03/18 10:08:32;;;;;;;;;;;13.40;99.90;;;;;;6210808;23;19900;-88
2023/03/18 10:11:00;;;;;;;;;;;13.40;99.90;;;;;;6211737;23;19991;-89
2023/03/18 10:13:32;;;;;;;;;;;13.40;99.90;;;;;;6211781;23;20347;-87
2023/03/18 10:16:02;;;;;;;;;;;13.40;99.90;;;;;;6213968;23;19904;-88
2023/03/18 10:18:32;;;;;;;;;;;13.40;99.90;;;;;;6187212;23;19908;-89
2023/03/18 10:21:06;;;;;;;;;;;13.40;99.90;;;;;;6213611;23;19914;-88
2023/03/18 10:23:41;;;;;;;;;;;13.50;99.90;;;;;;6212308;23;19922;-87
2023/03/18 10:26:27;;;;;;;;;;;13.50;99.90;;;;;;6212445;23;19906;-87
2023/03/18 10:29:12;;;;;;;;;;;13.50;99.90;;;;;;6186547;23;19942;-88
2023/03/18 10:31:51;;;;;;;;;;;13.70;99.90;;;;;;6212471;23;20284;-88
2023/03/18 10:34:23;;;;;;;;;;;13.80;99.90;;;;;;6185571;23;19922;-86
2023/03/18 10:36:56;;;;;;;;;;;14.00;99.90;;;;;;6185843;23;19969;-87
2023/03/18 10:39:24;;;;;;;;;;;14.10;99.90;;;;;;6212511;23;19908;-87
2023/03/18 10:41:51;;;;;;;;;;;14.20;99.90;;;;;;6212787;23;19923;-87
2023/03/18 10:44:17;;;;;;;;;;;14.30;99.90;;;;;;6185273;23;19900;-87
2023/03/18 10:46:45;;;;;;;;;;;14.30;99.90;;;;;;6212774;23;19907;-88
2023/03/18 10:49:24;;;;;;;;;;;14.20;99.90;;;;;;6211947;23;19990;-87
2023/03/18 10:52:04;;;;;;;;;;;14.20;99.90;;;;;;6185560;23;20244;-88
2023/03/18 10:54:40;;;;;;;;;;;14.20;99.90;;;;;;6213217;23;19900;-88
2023/03/18 10:57:11;;;;;;;;;;;14.00;99.90;;;;;;6185521;23;19990;-87
2023/03/18 10:59:37;;;;;;;;;;;14.00;99.90;;;;;;6211365;23;20232;-87
2023/03/18 11:02:04;;;;;;;;;;;14.00;99.90;;;;;;6212343;23;19928;-87
2023/03/18 11:04:32;;;;;;;;;;;13.90;99.90;;;;;;6212932;23;19900;-88
2023/03/18 11:07:00;;;;;;;;;;;13.90;99.90;;;;;;6212077;23;19983;-89
2023/03/18 11:09:35;;;;;;;;;;;14.00;99.90;;;;;;6212620;23;19904;-88
2023/03/18 11:12:29;;;;;;;;;;;14.00;99.90;;;;;;6213045;23;19922;-88
2023/03/18 11:14:55;;;;;;;;;;;13.80;99.90;;;;;;6207876;23;20240;-88
2023/03/18 11:17:29;;;;;;;;;;;13.90;99.90;;;;;;6212199;23;19908;-88
2023/03/18 11:20:19;;;;;;;;;;;13.80;99.90;;;;;;6211710;23;19908;-89
2023/03/18 11:22:47;;;;;;;;;;;13.80;99.90;;;;;;6193883;23;20345;-88
2023/03/18 11:25:15;;;;;;;;;;;13.90;99.90;;;;;;6212130;23;19899;-89
2023/03/18 11:27:42;;;;;;;;;;;14.20;99.90;;;;;;6212139;23;19906;-87
2023/03/18 11:30:14;;;;;;;;;;;14.40;99.90;;;;;;6185404;23;19900;-90
2023/03/18 11:32:49;;;;;;;;;;;14.70;99.90;;;;;;6185121;23;19907;-88
2023/03/18 11:35:17;;;;;;;;;;;14.80;99.90;;;;;;6184861;23;19930;-88
2023/03/18 11:37:45;;;;;;;;;;;15.00;99.90;;;;;;6211785;23;19907;-86
2023/03/18 11:40:25;;;;;;;;;;;15.10;99.90;;;;;;6211795;23;19969;-87
2023/03/18 11:42:55;;;;;;;;;;;15.00;99.90;;;;;;6184887;23;19900;-91
2023/03/18 11:45:31;;;;;;;;;;;15.00;99.90;;;;;;6211608;23;19931;-88
2023/03/18 11:47:57;;;;;;;;;;;14.80;99.90;;;;;;6185340;23;19909;-88
2023/03/18 11:50:25;;;;;;;;;;;14.10;99.90;;;;;;6211279;23;20301;-86
2023/03/18 11:52:59;;;;;;;;;;;14.60;99.90;;;;;;6211882;23;19900;-87
2023/03/18 11:55:43;;;;;;;;;;;14.50;99.90;;;;;;6211664;23;20415;-90
2023/03/18 11:58:15;;;;;;;;;;;14.40;99.90;;;;;;6210852;23;19949;-87
2023/03/18 12:00:46;;;;;;;;;;;14.20;99.90;;;;;;6184293;23;19899;-89
2023/03/18 12:03:34;;;;;;;;;;;14.10;99.90;;;;;;6212015;23;19934;-85
2023/03/18 12:06:20;;;;;;;;;;;13.90;99.90;;;;;;6184485;23;20276;-89
2023/03/18 12:08:50;;;;;;;;;;;13.80;99.90;;;;;;6184828;23;20375;-88
2023/03/18 12:11:35;;;;;;;;;;;13.70;99.90;;;;;;6184664;23;19904;-88
2023/03/18 12:14:08;;;;;;;;;;;13.80;99.90;;;;;;6212058;23;19904;-88
2023/03/18 12:16:43;;;;;;;;;;;13.70;99.90;;;;;;6212272;23;19926;-85
2023/03/18 12:19:35;;;;;;;;;;;13.60;99.90;;;;;;6211469;23;20300;-85
2023/03/18 12:22:21;;;;;;;;;;;13.60;99.90;;;;;;6183496;23;20272;-85
2023/03/18 12:24:59;;;;;;;;;;;13.60;99.90;;;;;;6133940;23;19899;-88
2023/03/18 12:27:44;;;;;;;;;;;13.60;99.90;;;;;;6209786;23;20327;-87
2023/03/18 12:30:18;;;;;;;;;;;13.40;99.90;;;;;;6208687;23;19923;-87
2023/03/18 12:32:49;;;;;;;;;;;13.40;99.90;;;;;;6209341;23;19954;-89
2023/03/18 12:35:15;;;;;;;;;;;13.40;99.90;;;;;;6182742;23;20387;-88
2023/03/18 12:37:50;;;;;;;;;;;13.40;99.90;;;;;;6181768;23;19916;-87
2023/03/18 12:40:28;;;;;;;;;;;13.40;99.90;;;;;;6209619;23;19907;-89
2023/03/18 12:43:12;;;;;;;;;;;13.40;99.90;;;;;;6208880;23;19954;-88
2023/03/18 12:45:39;;;;;;;;;;;13.50;99.90;;;;;;6208992;23;19954;-87
2023/03/18 12:48:11;;;;;;;;;;;13.60;99.90;;;;;;6184289;23;19900;-88
2023/03/18 12:50:47;;;;;;;;;;;13.70;99.90;;;;;;6210124;23;19900;-88
2023/03/18 12:53:12;;;;;;;;;;;13.80;99.90;;;;;;6209520;23;19899;-89
2023/03/18 12:55:39;;;;;;;;;;;13.80;99.90;;;;;;6209153;23;20329;-88
2023/03/18 12:58:09;;;;;;;;;;;13.80;99.90;;;;;;6183318;23;19915;-88
2023/03/18 13:00:45;;;;;;;;;;;13.90;99.90;;;;;;6184333;23;19936;-88
2023/03/18 13:03:30;;;;;;;;;;;13.90;99.90;;;;;;6203455;23;19922;-88
2023/03/18 13:06:04;;;;;;;;;;;14.00;99.90;;;;;;6210022;23;19900;-88
2023/03/18 13:08:32;;;;;;;;;;;14.00;99.90;;;;;;6183300;23;20229;-90
2023/03/18 13:11:04;;;;;;;;;;;14.10;99.90;;;;;;6209361;23;20329;-88
2023/03/18 13:13:32;;;;;;;;;;;14.30;99.90;;;;;;6182862;23;20390;-88
2023/03/18 13:15:58;;;;;;;;;;;14.40;99.90;;;;;;6183260;23;20302;-88
2023/03/18 13:18:34;;;;;;;;;;;14.50;99.90;;;;;;6183531;23;20355;-89
2023/03/18 13:21:01;;;;;;;;;;;14.80;99.90;;;;;;6160744;23;1171583;-88
2023/03/18 13:23:38;;;;;;;;;;;14.90;99.90;;;;;;6210477;23;20317;-88
2023/03/18 13:26:21;;;;;;;;;;;14.90;99.90;;;;;;6211499;23;20329;-88
2023/03/18 13:28:49;;;;;;;;;;;14.80;99.90;;;;;;6183524;23;19907;-89
2023/03/18 13:31:21;;;;;;;;;;;14.60;99.90;;;;;;6183559;23;19900;-87
2023/03/18 13:33:49;;;;;;;;;;;14.40;99.90;;;;;;6183424;23;19899;-89
2023/03/18 13:36:21;;;;;;;;;;;14.40;99.90;;;;;;6210041;23;19919;-87
2023/03/18 13:38:49;;;;;;;;;;;14.60;99.90;;;;;;6182580;23;19903;-89
2023/03/18 13:41:38;;;;;;;;;;;14.60;99.90;;;;;;6209865;23;20321;-87
2023/03/18 13:44:13;;;;;;;;;;;14.70;99.90;;;;;;6210537;23;20288;-88
2023/03/18 13:46:40;;;;;;;;;;;14.90;99.90;;;;;;6183630;23;19904;-87
2023/03/18 13:49:15;;;;;;;;;;;15.00;99.90;;;;;;6210806;23;19903;-89
2023/03/18 13:51:46;;;;;;;;;;;15.10;99.90;;;;;;6209237;23;19900;-88
2023/03/18 13:54:17;;;;;;;;;;;15.20;99.90;;;;;;6183363;23;20252;-89
2023/03/18 13:56:42;;;;;;;;;;;15.30;99.90;;;;;;6183486;23;20355;-91
2023/03/18 13:59:27;;;;;;;;;;;15.40;99.90;;;;;;6211701;23;19908;-90
2023/03/18 14:01:53;;;;;;;;;;;15.40;99.90;;;;;;6183384;23;19900;-89
2023/03/18 14:04:29;;;;;;;;;;;15.50;99.90;;;;;;6183808;23;19953;-89
2023/03/18 14:06:56;;;;;;;;;;;15.50;99.90;;;;;;6183253;23;19900;-89
2023/03/18 14:09:22;;;;;;;;;;;15.50;99.90;;;;;;6210380;23;19978;-89
2023/03/18 14:11:51;;;;;;;;;;;15.40;99.90;;;;;;6183522;23;20328;-90
2023/03/18 14:14:35;;;;;;;;;;;15.40;99.90;;;;;;6183139;23;19995;-91
2023/03/18 14:17:01;;;;;;;;;;;15.30;99.90;;;;;;6210288;23;20003;-89
2023/03/18 14:19:31;;;;;;;;;;;15.20;99.90;;;;;;6210317;23;19910;-89
2023/03/18 14:22:17;;;;;;;;;;;15.20;99.90;;;;;;6210875;23;20317;-87
2023/03/18 14:24:46;;;;;;;;;;;15.30;99.90;;;;;;6210640;23;19900;-90